createdAt,value
2019-02-28T00:01:13.907Z,39.20
2019-02-28T00:03:42.489Z,45.33
2019-02-28T00:06:12.691Z,45.97
2019-02-28T00:08:41.441Z,43.53
2019-02-28T00:11:10.040Z,42.53
2019-02-28T00:13:38.645Z,42.93
2019-02-28T00:16:07.268Z,44.93
2019-02-28T00:18:35.868Z,50.90
2019-02-28T00:21:06.910Z,44.20
2019-02-28T00:23:34.759Z,46.97
2019-02-28T00:26:03.452Z,46.80
2019-02-28T00:28:32.060Z,46.83
2019-02-28T00:31:00.660Z,45.97
2019-02-28T00:33:30.816Z,49.53
2019-02-28T00:35:59.583Z,49.90
2019-02-28T00:38:29.616Z,51.03
2019-02-28T00:41:18.551Z,50.17
2019-02-28T00:43:47.165Z,50.83
2019-02-28T00:46:15.895Z,51.27
2019-02-28T00:48:44.474Z,54.20
2019-02-28T00:51:15.880Z,48.93
2019-02-28T00:53:44.497Z,51.53
2019-02-28T00:56:13.070Z,48.17
2019-02-28T00:58:41.649Z,44.27
2019-02-28T01:01:11.495Z,47.80
2019-02-28T01:03:40.559Z,44.93
2019-02-28T01:06:10.497Z,43.17
2019-02-28T01:08:39.652Z,50.50
2019-02-28T01:11:10.425Z,50.70
2019-02-28T01:13:38.713Z,49.50
2019-02-28T01:16:07.388Z,46.10
2019-02-28T01:18:35.987Z,48.20
2019-02-28T01:21:04.603Z,46.20
2019-02-28T01:23:33.245Z,52.13
2019-02-28T01:26:01.934Z,55.90
2019-02-28T01:28:30.513Z,52.23
2019-02-28T01:30:59.179Z,54.00
2019-02-28T01:33:27.809Z,56.20
2019-02-28T01:35:56.447Z,57.93
2019-02-28T01:38:25.214Z,56.93
2019-02-28T01:41:13.245Z,58.30
2019-02-28T01:43:41.859Z,58.63
2019-02-28T01:46:29.778Z,57.20
2019-02-28T01:48:58.393Z,64.87
2019-02-28T01:51:27.033Z,64.57
2019-02-28T01:53:55.647Z,62.13
2019-02-28T01:56:24.701Z,59.50
2019-02-28T01:58:53.315Z,65.17
2019-02-28T02:01:21.916Z,64.43
2019-02-28T02:03:50.508Z,61.37
2019-02-28T02:06:19.118Z,62.23
2019-02-28T02:08:47.713Z,61.30
2019-02-28T02:11:35.626Z,67.87
2019-02-28T02:14:04.212Z,58.13
2019-02-28T02:16:32.811Z,66.07
2019-02-28T02:19:02.928Z,58.83
2019-02-28T02:21:34.895Z,72.60
2019-02-28T02:24:03.156Z,61.97
2019-02-28T02:26:31.832Z,59.23
2019-02-28T02:29:01.211Z,57.03
2019-02-28T02:31:30.512Z,60.87
2019-02-28T02:33:59.106Z,54.07
2019-02-28T02:36:27.695Z,57.90
2019-02-28T02:38:56.272Z,58.40
2019-02-28T02:41:24.877Z,62.10
2019-02-28T02:43:56.045Z,53.13
2019-02-28T02:46:24.749Z,55.03
2019-02-28T02:48:53.340Z,60.63
2019-02-28T02:51:21.947Z,62.17
2019-02-28T02:53:50.529Z,67.67
2019-02-28T02:56:19.121Z,69.73
2019-02-28T02:58:47.729Z,72.30
2019-02-28T03:01:16.445Z,81.60
2019-02-28T03:03:45.034Z,70.70
2019-02-28T03:06:25.394Z,72.63
2019-02-28T03:08:54.036Z,74.23
2019-02-28T03:11:24.753Z,80.53
2019-02-28T03:13:52.932Z,78.57
2019-02-28T03:16:21.550Z,79.77
2019-02-28T03:18:56.492Z,74.47
2019-02-28T03:21:20.506Z,72.10
2019-02-28T03:23:49.164Z,65.20
2019-02-28T03:26:17.769Z,67.63
2019-02-28T03:28:46.376Z,66.03
2019-02-28T03:31:34.314Z,64.33
2019-02-28T03:34:10.020Z,77.50
2019-02-28T03:36:33.415Z,73.43
2019-02-28T03:41:44.896Z,78.87
2019-02-28T03:44:19.819Z,79.07
2019-02-28T03:46:46.838Z,74.90
2019-02-28T03:49:14.176Z,76.53
2019-02-28T03:51:42.744Z,67.60
2019-02-28T03:54:11.356Z,73.83
2019-02-28T03:56:39.932Z,75.20
2019-02-28T03:59:08.859Z,71.17
2019-02-28T04:01:44.808Z,68.33
2019-02-28T04:04:12.202Z,63.80
2019-02-28T04:06:40.717Z,61.87
2019-02-28T04:09:09.036Z,73.50
2019-02-28T04:11:37.818Z,66.73
2019-02-28T04:14:06.421Z,63.63
2019-02-28T04:16:35.029Z,61.93
2019-02-28T04:19:05.806Z,64.80
2019-02-28T04:21:34.404Z,59.50
2019-02-28T04:24:22.352Z,60.90
2019-02-28T04:26:50.949Z,55.70
2019-02-28T04:29:19.536Z,55.20
2019-02-28T04:31:51.353Z,62.07
2019-02-28T04:34:18.461Z,58.77
2019-02-28T04:36:47.079Z,62.27
2019-02-28T04:39:18.425Z,59.83
2019-02-28T04:41:47.004Z,63.83
2019-02-28T04:44:19.030Z,65.53
2019-02-28T04:46:47.916Z,72.47
2019-02-28T04:49:22.737Z,78.87
2019-02-28T04:51:49.978Z,81.83
2019-02-28T04:54:18.587Z,75.57
2019-02-28T04:56:47.172Z,66.30
2019-02-28T04:59:15.763Z,58.67
2019-02-28T05:01:46.167Z,58.90
2019-02-28T05:04:14.819Z,70.03
2019-02-28T05:06:43.445Z,64.63
2019-02-28T05:09:14.550Z,70.87
2019-02-28T05:11:42.591Z,62.50
2019-02-28T05:14:11.191Z,65.70
2019-02-28T05:16:40.053Z,68.10
2019-02-28T05:19:08.664Z,75.27
2019-02-28T05:21:37.657Z,65.43
2019-02-28T05:24:07.759Z,82.77
2019-02-28T05:26:36.674Z,95.63
2019-02-28T05:29:05.288Z,84.60
2019-02-28T05:31:33.876Z,89.17
2019-02-28T05:34:02.498Z,87.87
2019-02-28T05:36:31.145Z,102.63
2019-02-28T05:38:59.744Z,92.50
2019-02-28T05:41:28.344Z,93.57
2019-02-28T05:43:56.931Z,89.77
2019-02-28T05:46:25.578Z,94.63
2019-02-28T05:48:54.170Z,88.17
2019-02-28T05:51:24.873Z,94.97
2019-02-28T05:53:53.153Z,90.80
2019-02-28T05:56:21.757Z,91.93
2019-02-28T05:58:52.491Z,101.10
2019-02-28T06:01:20.657Z,87.67
2019-02-28T06:03:49.239Z,97.00
2019-02-28T06:06:20.182Z,93.37
2019-02-28T06:08:48.435Z,89.40
2019-02-28T06:11:20.128Z,88.90
2019-02-28T06:13:49.591Z,103.97
2019-02-28T06:16:19.123Z,95.27
2019-02-28T06:18:47.688Z,89.10
2019-02-28T06:21:35.632Z,81.03
2019-02-28T06:24:04.286Z,85.63
2019-02-28T06:26:33.005Z,80.33
2019-02-28T06:29:04.607Z,88.20
2019-02-28T06:31:32.061Z,80.00
2019-02-28T06:34:05.562Z,81.47
2019-02-28T06:36:35.451Z,76.90
2019-02-28T06:39:05.563Z,85.33
2019-02-28T06:41:34.149Z,75.03
2019-02-28T06:44:02.809Z,86.67
2019-02-28T06:46:34.173Z,88.37
2019-02-28T06:49:07.036Z,86.17
2019-02-28T06:51:34.399Z,86.07
2019-02-28T06:54:04.371Z,90.97
2019-02-28T06:56:33.455Z,100.13
2019-02-28T06:59:04.879Z,99.53
2019-02-28T07:01:56.624Z,104.83
2019-02-28T07:04:22.164Z,96.20
2019-02-28T07:06:51.036Z,97.13
2019-02-28T07:09:19.664Z,98.83
2019-02-28T07:11:48.256Z,97.70
2019-02-28T07:14:18.583Z,98.27
2019-02-28T07:16:47.184Z,104.33
2019-02-28T07:19:35.112Z,103.97
2019-02-28T07:22:03.885Z,102.73
2019-02-28T07:24:37.278Z,98.30
2019-02-28T07:27:04.284Z,108.97
2019-02-28T07:29:32.952Z,102.70
2019-02-28T07:32:21.117Z,121.73
2019-02-28T07:34:51.647Z,108.20
2019-02-28T07:37:20.025Z,110.50
2019-02-28T07:39:48.674Z,118.07
2019-02-28T07:42:18.461Z,117.33
2019-02-28T07:44:47.088Z,122.07
2019-02-28T07:47:17.693Z,114.53
2019-02-28T07:49:46.121Z,116.30
2019-02-28T07:52:14.817Z,112.47
2019-02-28T07:55:02.805Z,119.40
2019-02-28T07:57:31.419Z,116.33
2019-02-28T08:00:00.114Z,120.10
2019-02-28T08:02:28.958Z,117.30
2019-02-28T08:04:57.623Z,123.83
2019-02-28T08:07:26.207Z,122.47
2019-02-28T08:09:54.933Z,117.43
2019-02-28T08:12:23.535Z,112.70
2019-02-28T08:14:52.151Z,110.40
2019-02-28T08:17:20.767Z,104.60
2019-02-28T08:19:49.416Z,106.93
2019-02-28T08:22:23.346Z,106.57
2019-02-28T08:24:48.373Z,101.77
2019-02-28T08:27:17.057Z,104.70
2019-02-28T08:29:46.049Z,100.63
2019-02-28T08:32:16.965Z,99.30
2019-02-28T08:34:46.821Z,101.70
2019-02-28T08:37:19.025Z,101.17
2019-02-28T08:39:46.131Z,102.63
2019-02-28T08:42:14.821Z,108.93
2019-02-28T08:44:43.443Z,105.93
2019-02-28T08:47:12.049Z,103.77
2019-02-28T08:49:43.975Z,102.77
2019-02-28T08:52:11.021Z,105.93
2019-02-28T08:54:39.629Z,102.53
2019-02-28T08:57:27.544Z,102.17
2019-02-28T08:59:57.068Z,100.07
2019-02-28T09:02:25.867Z,100.30
2019-02-28T09:04:54.454Z,106.83
2019-02-28T09:07:23.041Z,108.83
2019-02-28T09:09:51.624Z,107.87
2019-02-28T09:12:20.232Z,107.10
2019-02-28T09:14:48.850Z,105.33
2019-02-28T09:17:18.649Z,111.00
2019-02-28T09:19:47.999Z,108.00
2019-02-28T09:22:16.606Z,107.37
2019-02-28T09:24:46.834Z,107.23
2019-02-28T09:27:15.533Z,108.27
2019-02-28T09:29:44.152Z,107.60
2019-02-28T09:32:13.535Z,114.30
2019-02-28T09:34:43.418Z,110.37
2019-02-28T09:37:12.114Z,109.93
2019-02-28T09:39:40.744Z,111.30
2019-02-28T09:42:14.849Z,111.80
2019-02-28T09:44:39.730Z,109.53
2019-02-28T09:47:11.591Z,110.93
2019-02-28T09:49:39.032Z,113.63
2019-02-28T09:52:07.632Z,109.60
2019-02-28T09:54:36.536Z,103.70
2019-02-28T09:57:05.225Z,99.67
2019-02-28T09:59:37.349Z,101.27
2019-02-28T10:02:08.087Z,102.13
2019-02-28T10:04:34.563Z,99.27
2019-02-28T10:07:03.657Z,99.20
2019-02-28T10:09:32.244Z,97.63
2019-02-28T10:12:00.921Z,96.43
2019-02-28T10:14:29.748Z,92.33
2019-02-28T10:17:17.831Z,89.23
2019-02-28T10:19:49.176Z,88.13
2019-02-28T10:22:16.951Z,79.53
2019-02-28T10:24:45.553Z,82.00
2019-02-28T10:27:14.176Z,72.23
2019-02-28T10:29:42.908Z,72.47
2019-02-28T10:32:11.520Z,63.13
2019-02-28T10:34:40.119Z,62.07
2019-02-28T10:37:08.796Z,56.83
2019-02-28T10:39:40.230Z,59.50
2019-02-28T10:42:07.768Z,58.33
2019-02-28T10:44:36.369Z,56.43
2019-02-28T10:47:05.335Z,56.93
2019-02-28T10:49:33.928Z,63.13
2019-02-28T10:52:14.964Z,57.47
2019-02-28T10:54:48.426Z,51.70
2019-02-28T10:57:13.891Z,53.37
2019-02-28T10:59:42.521Z,55.13
2019-02-28T11:02:13.963Z,52.60
2019-02-28T11:04:43.777Z,58.13
2019-02-28T11:07:12.200Z,64.30
2019-02-28T11:09:41.154Z,70.13
2019-02-28T11:12:09.773Z,72.93
2019-02-28T11:14:39.352Z,72.77
2019-02-28T11:17:13.530Z,78.57
2019-02-28T11:19:38.405Z,78.03
2019-02-28T11:22:07.015Z,84.20
2019-02-28T11:27:24.468Z,80.13
2019-02-28T11:29:53.120Z,79.03
2019-02-28T11:32:21.987Z,84.37
2019-02-28T11:34:50.577Z,83.03
2019-02-28T11:37:19.209Z,83.57
2019-02-28T11:39:48.192Z,75.43
2019-02-28T11:42:18.919Z,74.67
2019-02-28T11:44:47.703Z,69.23
2019-02-28T11:47:16.492Z,74.70
2019-02-28T11:49:45.487Z,74.60
2019-02-28T11:52:15.952Z,78.57
2019-02-28T11:54:45.176Z,79.63
2019-02-28T11:57:17.091Z,84.07
2019-02-28T11:59:45.716Z,80.40
2019-02-28T12:02:14.318Z,75.63
2019-02-28T12:04:42.988Z,75.80
2019-02-28T12:07:11.601Z,74.80
2019-02-28T12:09:40.370Z,72.63
2019-02-28T12:12:10.418Z,67.57
2019-02-28T12:14:39.560Z,67.50
2019-02-28T12:17:08.181Z,58.17
2019-02-28T12:19:36.820Z,57.07
2019-02-28T12:22:05.454Z,52.93
2019-02-28T12:24:34.119Z,54.50
2019-02-28T12:27:04.150Z,51.50
2019-02-28T12:29:33.033Z,49.20
2019-02-28T12:32:01.781Z,47.20
2019-02-28T12:34:30.492Z,48.20
2019-02-28T12:37:18.428Z,47.03
2019-02-28T12:39:47.028Z,41.83
2019-02-28T12:42:15.821Z,35.57
2019-02-28T12:45:03.960Z,35.50
2019-02-28T12:47:34.997Z,34.73
2019-02-28T12:50:04.905Z,32.77
2019-02-28T12:52:33.636Z,33.63
2019-02-28T12:55:04.896Z,32.93
2019-02-28T12:57:34.444Z,28.90
2019-02-28T13:00:03.318Z,29.67
2019-02-28T13:02:32.013Z,25.77
2019-02-28T13:05:00.613Z,26.17
2019-02-28T13:07:30.487Z,26.27
2019-02-28T13:09:59.929Z,22.30
2019-02-28T13:12:28.618Z,22.73
2019-02-28T13:14:58.577Z,20.50
2019-02-28T13:17:28.282Z,19.17
2019-02-28T13:19:57.703Z,20.03
2019-02-28T13:22:26.301Z,18.37
2019-02-28T13:24:55.030Z,17.83
2019-02-28T13:27:26.913Z,17.07
2019-02-28T13:29:55.597Z,15.80
2019-02-28T13:32:24.300Z,14.37
2019-02-28T13:34:53.025Z,13.60
2019-02-28T13:37:42.222Z,14.53
2019-02-28T13:40:11.724Z,18.33
2019-02-28T13:42:42.169Z,18.23
2019-02-28T13:45:16.167Z,17.33
2019-02-28T13:47:46.277Z,18.17
2019-02-28T13:50:17.320Z,14.20
2019-02-28T13:52:45.736Z,12.97
2019-02-28T13:55:18.811Z,14.40
2019-02-28T13:57:46.635Z,12.63
2019-02-28T14:00:22.240Z,14.43
2019-02-28T14:02:55.733Z,11.90
2019-02-28T14:05:24.485Z,10.47
2019-02-28T14:07:53.276Z,11.67
2019-02-28T14:10:22.617Z,12.13
2019-02-28T14:12:53.256Z,11.00
2019-02-28T14:15:27.061Z,10.37
2019-02-28T14:17:55.713Z,10.07
2019-02-28T14:20:27.395Z,10.50
2019-02-28T14:22:54.737Z,8.90
2019-02-28T14:25:23.395Z,7.70
2019-02-28T14:27:52.077Z,9.33
2019-02-28T14:30:22.790Z,8.10
2019-02-28T14:32:52.372Z,7.47
2019-02-28T14:35:22.859Z,7.07
2019-02-28T14:37:51.968Z,8.20
2019-02-28T14:40:21.675Z,7.80
2019-02-28T14:42:50.341Z,6.60
2019-02-28T14:45:19.549Z,7.00
2019-02-28T14:47:56.472Z,8.47
2019-02-28T14:50:20.167Z,6.87
2019-02-28T14:52:49.103Z,6.23
2019-02-28T14:55:17.745Z,5.27
2019-02-28T14:57:48.799Z,6.13
2019-02-28T15:00:22.460Z,7.23
2019-02-28T15:02:51.125Z,6.90
2019-02-28T15:05:20.466Z,6.43
2019-02-28T15:07:50.582Z,6.03
2019-02-28T15:10:19.521Z,6.13
2019-02-28T15:12:48.188Z,5.70
2019-02-28T15:15:18.873Z,6.50
2019-02-28T15:17:47.714Z,6.40
2019-02-28T15:20:35.641Z,6.67
2019-02-28T15:23:04.348Z,5.20
2019-02-28T15:25:33.013Z,5.97
2019-02-28T15:28:01.676Z,6.27
2019-02-28T15:30:33.931Z,6.93
2019-02-28T15:33:01.904Z,7.47
2019-02-28T15:35:30.513Z,7.50
2019-02-28T15:37:59.125Z,6.00
2019-02-28T15:40:29.813Z,7.47
2019-02-28T15:42:58.410Z,8.23
2019-02-28T15:45:28.888Z,7.20
2019-02-28T15:47:59.007Z,8.13
2019-02-28T15:50:28.220Z,8.40
2019-02-28T15:52:57.005Z,6.70
2019-02-28T15:55:25.721Z,7.10
2019-02-28T15:57:54.336Z,6.77
2019-02-28T16:00:24.830Z,6.50
2019-02-28T16:02:53.520Z,6.83
2019-02-28T16:05:22.121Z,8.23
2019-02-28T16:07:50.748Z,7.27
2019-02-28T16:10:39.973Z,6.33
2019-02-28T16:13:08.649Z,7.20
2019-02-28T16:15:37.312Z,6.57
2019-02-28T16:18:08.745Z,5.87
2019-02-28T16:20:38.180Z,8.03
2019-02-28T16:23:06.635Z,7.70
2019-02-28T16:25:35.298Z,6.57
2019-02-28T16:28:08.803Z,6.63
2019-02-28T16:30:38.008Z,5.83
2019-02-28T16:33:06.632Z,6.93
2019-02-28T16:35:38.188Z,7.33
2019-02-28T16:38:10.108Z,7.10
2019-02-28T16:40:37.173Z,6.87
2019-02-28T16:43:05.756Z,9.83
2019-02-28T16:45:37.496Z,7.60
2019-02-28T16:48:07.625Z,6.43
2019-02-28T16:50:36.309Z,6.37
2019-02-28T16:53:05.311Z,7.00
2019-02-28T16:55:34.152Z,7.13
2019-02-28T16:58:02.920Z,7.30
2019-02-28T17:00:31.533Z,7.43
2019-02-28T17:03:00.124Z,6.33
2019-02-28T17:05:48.400Z,8.10
2019-02-28T17:08:18.663Z,6.47
2019-02-28T17:10:48.007Z,6.47
2019-02-28T17:13:25.613Z,5.10
2019-02-28T17:16:16.763Z,6.97
2019-02-28T17:18:45.397Z,5.80
2019-02-28T17:21:18.019Z,4.70
2019-02-28T17:23:45.260Z,5.47
2019-02-28T17:27:02.435Z,5.20
2019-02-28T17:29:39.521Z,6.17
2019-02-28T17:32:08.391Z,5.07
2019-02-28T17:34:37.373Z,4.27
2019-02-28T17:37:06.094Z,4.37
2019-02-28T17:39:34.685Z,4.70
2019-02-28T17:42:08.596Z,5.00
2019-02-28T17:45:03.328Z,4.33
2019-02-28T17:47:54.462Z,4.67
2019-02-28T17:50:53.787Z,5.07
2019-02-28T17:53:55.557Z,5.63
2019-02-28T17:57:10.920Z,6.23
2019-02-28T17:59:47.456Z,7.00
2019-02-28T18:02:52.988Z,6.67
2019-02-28T18:05:45.208Z,8.37
2019-02-28T18:08:37.808Z,7.73
2019-02-28T18:11:43.492Z,8.20
2019-02-28T18:14:24.209Z,9.03
2019-02-28T18:17:49.680Z,7.47
2019-02-28T18:20:46.764Z,8.50
2019-02-28T18:23:39.328Z,8.17
2019-02-28T18:26:21.412Z,7.53
2019-02-28T18:29:41.036Z,8.20
2019-02-28T18:32:09.705Z,8.07
2019-02-28T18:34:38.368Z,8.17
2019-02-28T18:37:07.312Z,8.40
2019-02-28T18:39:35.894Z,7.50
2019-02-28T18:42:04.557Z,9.03
2019-02-28T18:44:33.200Z,7.63
2019-02-28T18:47:04.181Z,9.47
2019-02-28T18:49:32.338Z,10.03
2019-02-28T18:52:01.092Z,9.70
2019-02-28T18:54:29.744Z,10.27
2019-02-28T18:56:58.419Z,10.83
2019-02-28T18:59:46.357Z,9.87
2019-02-28T19:02:16.509Z,10.57
2019-02-28T19:04:45.115Z,10.23
2019-02-28T19:07:13.789Z,10.43
2019-02-28T19:09:42.444Z,10.27
2019-02-28T19:12:11.108Z,10.13
2019-02-28T19:14:39.770Z,10.10
2019-02-28T19:17:08.398Z,10.30
2019-02-28T19:19:37.059Z,11.00
2019-02-28T19:22:06.035Z,9.93
2019-02-28T19:24:34.664Z,11.00
2019-02-28T19:27:03.416Z,10.40
2019-02-28T19:29:32.176Z,9.87
2019-02-28T19:32:00.771Z,11.90
2019-02-28T19:34:29.356Z,10.97
2019-02-28T19:36:57.923Z,9.73
2019-02-28T19:39:26.542Z,10.80
2019-02-28T19:41:55.465Z,9.67
2019-02-28T19:44:24.367Z,10.03
2019-02-28T19:46:53.358Z,10.37
2019-02-28T19:49:21.947Z,12.53
2019-02-28T19:51:50.562Z,11.93
2019-02-28T19:54:19.158Z,13.40
2019-02-28T19:56:47.766Z,13.83
2019-02-28T19:59:16.471Z,13.17
2019-02-28T20:01:45.470Z,12.13
2019-02-28T20:04:15.543Z,12.20
2019-02-28T20:06:44.642Z,13.30
2019-02-28T20:09:13.254Z,11.50
2019-02-28T20:11:41.876Z,12.27
2019-02-28T20:14:10.525Z,11.67
2019-02-28T20:16:39.127Z,12.80
2019-02-28T20:19:07.732Z,13.83
2019-02-28T20:21:36.355Z,11.60
2019-02-28T20:24:05.727Z,11.10
2019-02-28T20:26:53.805Z,11.07
2019-02-28T20:29:22.489Z,9.43
2019-02-28T20:31:51.100Z,9.87
2019-02-28T20:34:19.758Z,10.53
2019-02-28T20:36:48.352Z,9.53
2019-02-28T20:39:17.087Z,9.83
2019-02-28T20:41:45.663Z,9.67
2019-02-28T20:44:16.251Z,8.10
2019-02-28T20:46:44.616Z,9.43
2019-02-28T20:49:13.239Z,9.50
2019-02-28T20:52:01.187Z,10.73
2019-02-28T20:54:29.798Z,9.70
2019-02-28T20:56:58.412Z,9.77
2019-02-28T20:59:27.111Z,12.27
2019-02-28T21:01:55.704Z,10.43
2019-02-28T21:04:24.379Z,11.90
2019-02-28T21:06:52.961Z,10.27
2019-02-28T21:09:21.958Z,11.73
2019-02-28T21:11:50.539Z,9.80
2019-02-28T21:14:19.124Z,9.70
2019-02-28T21:16:47.722Z,10.50
2019-02-28T21:19:21.017Z,10.53
2019-02-28T21:21:49.643Z,10.10
2019-02-28T21:24:18.241Z,10.10
2019-02-28T21:27:06.168Z,10.93
2019-02-28T21:29:35.001Z,10.23
2019-02-28T21:32:05.620Z,10.83
2019-02-28T21:34:34.389Z,9.93
2019-02-28T21:37:06.101Z,12.23
2019-02-28T21:39:34.807Z,10.73
2019-02-28T21:42:03.595Z,9.17
2019-02-28T21:44:32.305Z,11.13
2019-02-28T21:47:20.597Z,9.63
2019-02-28T21:49:49.211Z,11.63
2019-02-28T21:52:17.818Z,14.37
2019-02-28T21:54:46.511Z,12.33
2019-02-28T21:57:16.419Z,13.87
2019-02-28T21:59:45.017Z,15.30
2019-02-28T22:02:13.652Z,15.50
2019-02-28T22:04:42.260Z,16.03
2019-02-28T22:07:10.854Z,16.00
2019-02-28T22:09:59.075Z,16.53
2019-02-28T22:12:27.696Z,15.97
2019-02-28T22:14:56.303Z,16.63
2019-02-28T22:17:44.242Z,16.67
2019-02-28T22:20:13.357Z,15.63
2019-02-28T22:22:41.956Z,18.33
2019-02-28T22:25:11.543Z,22.27
2019-02-28T22:27:40.497Z,19.50
2019-02-28T22:30:31.111Z,22.33
2019-02-28T22:33:03.724Z,19.70
2019-02-28T22:35:35.912Z,21.60
2019-02-28T22:38:04.520Z,22.57
2019-02-28T22:40:33.206Z,19.43
2019-02-28T22:43:03.446Z,22.07
2019-02-28T22:45:32.077Z,23.80
2019-02-28T22:48:00.680Z,23.70
2019-02-28T22:50:29.440Z,27.00
2019-02-28T22:52:58.030Z,31.30
2019-02-28T22:55:26.620Z,32.13
2019-02-28T22:57:55.281Z,41.53
2019-02-28T23:00:43.312Z,42.53
2019-02-28T23:03:11.925Z,51.40
2019-02-28T23:05:40.563Z,56.03
2019-02-28T23:08:09.177Z,62.77
2019-02-28T23:10:37.764Z,59.20
2019-02-28T23:13:07.931Z,66.40
2019-02-28T23:15:36.563Z,73.03
2019-02-28T23:18:05.144Z,77.97
2019-02-28T23:20:33.800Z,79.47
2019-02-28T23:23:05.186Z,90.03
2019-02-28T23:25:33.844Z,103.10
2019-02-28T23:28:32.377Z,105.70
2019-02-28T23:31:40.609Z,103.70
2019-02-28T23:34:26.020Z,126.93
2019-02-28T23:36:54.646Z,154.53
2019-02-28T23:39:23.309Z,146.07
2019-02-28T23:41:52.008Z,174.13
2019-02-28T23:44:20.610Z,183.30
2019-02-28T23:46:49.237Z,149.03
2019-02-28T23:49:17.932Z,129.73
2019-02-28T23:51:46.520Z,124.83
2019-02-28T23:54:15.103Z,128.87
2019-02-28T23:56:43.989Z,128.03
2019-02-28T23:59:31.933Z,130.67
